sensor_id;sensor_type;location;lat;lon;timestamp;P1;durP1;ratioP1;P2;durP2;ratioP2
18526;SDS011;9393;42.158;24.748;2022-12-20T00:00:28;15.93;;;9.83;;
18526;SDS011;9393;42.158;24.748;2022-12-20T00:03:32;18.73;;;10.07;;
18526;SDS011;9393;42.158;24.748;2022-12-20T00:06:38;20.53;;;9.87;;
18526;SDS011;9393;42.158;24.748;2022-12-20T00:09:42;19.43;;;9.90;;
18526;SDS011;9393;42.158;24.748;2022-12-20T00:12:46;21.90;;;9.87;;
18526;SDS011;9393;42.158;24.748;2022-12-20T00:15:50;20.20;;;9.73;;
18526;SDS011;9393;42.158;24.748;2022-12-20T00:19:06;19.47;;;10.00;;
18526;SDS011;9393;42.158;24.748;2022-12-20T00:22:13;21.23;;;11.27;;
18526;SDS011;9393;42.158;24.748;2022-12-20T00:25:17;20.03;;;10.70;;
18526;SDS011;9393;42.158;24.748;2022-12-20T00:28:22;23.20;;;11.03;;
18526;SDS011;9393;42.158;24.748;2022-12-20T00:31:26;21.13;;;11.20;;
18526;SDS011;9393;42.158;24.748;2022-12-20T00:34:32;25.63;;;12.83;;
18526;SDS011;9393;42.158;24.748;2022-12-20T00:37:38;26.37;;;13.93;;
18526;SDS011;9393;42.158;24.748;2022-12-20T00:40:42;27.33;;;13.80;;
18526;SDS011;9393;42.158;24.748;2022-12-20T00:43:46;24.23;;;13.07;;
18526;SDS011;9393;42.158;24.748;2022-12-20T00:46:50;28.17;;;13.57;;
18526;SDS011;9393;42.158;24.748;2022-12-20T00:49:54;27.60;;;14.40;;
18526;SDS011;9393;42.158;24.748;2022-12-20T00:52:59;26.93;;;13.47;;
18526;SDS011;9393;42.158;24.748;2022-12-20T00:56:03;25.20;;;12.70;;
18526;SDS011;9393;42.158;24.748;2022-12-20T00:59:08;24.50;;;13.03;;
18526;SDS011;9393;42.158;24.748;2022-12-20T01:02:12;26.07;;;13.70;;
18526;SDS011;9393;42.158;24.748;2022-12-20T01:05:16;23.90;;;12.43;;
18526;SDS011;9393;42.158;24.748;2022-12-20T01:08:22;23.33;;;12.03;;
18526;SDS011;9393;42.158;24.748;2022-12-20T01:11:28;21.77;;;10.93;;
18526;SDS011;9393;42.158;24.748;2022-12-20T01:14:33;26.07;;;12.47;;
18526;SDS011;9393;42.158;24.748;2022-12-20T01:17:37;27.27;;;12.27;;
18526;SDS011;9393;42.158;24.748;2022-12-20T01:20:42;18.87;;;10.60;;
18526;SDS011;9393;42.158;24.748;2022-12-20T01:23:47;26.47;;;12.10;;
18526;SDS011;9393;42.158;24.748;2022-12-20T01:26:51;24.80;;;12.00;;
18526;SDS011;9393;42.158;24.748;2022-12-20T01:29:55;28.40;;;13.33;;
18526;SDS011;9393;42.158;24.748;2022-12-20T01:32:59;29.37;;;13.07;;
18526;SDS011;9393;42.158;24.748;2022-12-20T01:36:04;19.97;;;11.47;;
18526;SDS011;9393;42.158;24.748;2022-12-20T01:39:12;29.07;;;12.60;;
18526;SDS011;9393;42.158;24.748;2022-12-20T01:42:18;37.23;;;15.70;;
18526;SDS011;9393;42.158;24.748;2022-12-20T01:45:24;24.00;;;11.47;;
18526;SDS011;9393;42.158;24.748;2022-12-20T01:48:31;43.63;;;18.13;;
18526;SDS011;9393;42.158;24.748;2022-12-20T01:51:35;21.40;;;11.33;;
18526;SDS011;9393;42.158;24.748;2022-12-20T01:54:45;21.93;;;10.73;;
18526;SDS011;9393;42.158;24.748;2022-12-20T01:57:55;20.87;;;10.93;;
18526;SDS011;9393;42.158;24.748;2022-12-20T02:01:04;24.43;;;11.70;;
18526;SDS011;9393;42.158;24.748;2022-12-20T02:04:08;18.67;;;10.20;;
18526;SDS011;9393;42.158;24.748;2022-12-20T02:07:13;28.73;;;13.97;;
18526;SDS011;9393;42.158;24.748;2022-12-20T02:10:26;24.00;;;11.80;;
18526;SDS011;9393;42.158;24.748;2022-12-20T02:13:44;23.93;;;12.37;;
18526;SDS011;9393;42.158;24.748;2022-12-20T02:16:53;26.10;;;12.67;;
18526;SDS011;9393;42.158;24.748;2022-12-20T02:20:13;24.57;;;11.60;;
18526;SDS011;9393;42.158;24.748;2022-12-20T02:23:58;21.43;;;10.83;;
18526;SDS011;9393;42.158;24.748;2022-12-20T02:27:40;21.80;;;11.37;;
18526;SDS011;9393;42.158;24.748;2022-12-20T02:30:55;24.00;;;12.10;;
18526;SDS011;9393;42.158;24.748;2022-12-20T02:34:03;22.67;;;11.93;;
18526;SDS011;9393;42.158;24.748;2022-12-20T02:37:09;24.40;;;12.70;;
18526;SDS011;9393;42.158;24.748;2022-12-20T02:40:14;24.33;;;12.90;;
18526;SDS011;9393;42.158;24.748;2022-12-20T02:43:20;23.53;;;12.97;;
18526;SDS011;9393;42.158;24.748;2022-12-20T02:46:45;27.77;;;14.23;;
18526;SDS011;9393;42.158;24.748;2022-12-20T02:49:51;31.43;;;14.80;;
18526;SDS011;9393;42.158;24.748;2022-12-20T02:52:57;24.23;;;12.13;;
18526;SDS011;9393;42.158;24.748;2022-12-20T02:56:03;55.77;;;22.30;;
18526;SDS011;9393;42.158;24.748;2022-12-20T02:59:14;30.53;;;14.00;;
18526;SDS011;9393;42.158;24.748;2022-12-20T03:02:25;28.17;;;11.93;;
18526;SDS011;9393;42.158;24.748;2022-12-20T03:05:29;22.67;;;11.87;;
18526;SDS011;9393;42.158;24.748;2022-12-20T03:08:36;47.30;;;17.43;;
18526;SDS011;9393;42.158;24.748;2022-12-20T03:11:41;39.00;;;16.43;;
18526;SDS011;9393;42.158;24.748;2022-12-20T03:14:44;35.07;;;14.53;;
18526;SDS011;9393;42.158;24.748;2022-12-20T03:17:50;30.37;;;14.00;;
18526;SDS011;9393;42.158;24.748;2022-12-20T03:20:54;37.40;;;16.07;;
18526;SDS011;9393;42.158;24.748;2022-12-20T03:23:59;29.40;;;15.27;;
18526;SDS011;9393;42.158;24.748;2022-12-20T03:27:03;24.93;;;11.97;;
18526;SDS011;9393;42.158;24.748;2022-12-20T03:30:07;21.73;;;11.33;;
18526;SDS011;9393;42.158;24.748;2022-12-20T03:33:13;29.40;;;13.20;;
18526;SDS011;9393;42.158;24.748;2022-12-20T03:36:17;27.00;;;12.17;;
18526;SDS011;9393;42.158;24.748;2022-12-20T03:39:29;28.13;;;13.90;;
18526;SDS011;9393;42.158;24.748;2022-12-20T03:42:33;45.20;;;16.13;;
18526;SDS011;9393;42.158;24.748;2022-12-20T03:45:38;26.37;;;12.00;;
18526;SDS011;9393;42.158;24.748;2022-12-20T03:48:43;23.13;;;10.80;;
18526;SDS011;9393;42.158;24.748;2022-12-20T03:51:47;21.17;;;10.63;;
18526;SDS011;9393;42.158;24.748;2022-12-20T03:54:51;59.17;;;26.27;;
18526;SDS011;9393;42.158;24.748;2022-12-20T03:58:02;42.50;;;19.60;;
18526;SDS011;9393;42.158;24.748;2022-12-20T04:01:17;45.67;;;20.97;;
18526;SDS011;9393;42.158;24.748;2022-12-20T04:04:26;84.23;;;41.50;;
18526;SDS011;9393;42.158;24.748;2022-12-20T04:07:29;34.20;;;17.83;;
18526;SDS011;9393;42.158;24.748;2022-12-20T04:10:33;31.37;;;17.87;;
18526;SDS011;9393;42.158;24.748;2022-12-20T04:14:03;23.53;;;11.77;;
18526;SDS011;9393;42.158;24.748;2022-12-20T04:17:07;23.93;;;12.77;;
18526;SDS011;9393;42.158;24.748;2022-12-20T04:20:13;22.93;;;12.13;;
18526;SDS011;9393;42.158;24.748;2022-12-20T04:23:40;30.63;;;14.97;;
18526;SDS011;9393;42.158;24.748;2022-12-20T04:26:46;36.40;;;16.97;;
18526;SDS011;9393;42.158;24.748;2022-12-20T04:29:51;25.03;;;11.73;;
18526;SDS011;9393;42.158;24.748;2022-12-20T04:32:56;25.60;;;10.63;;
18526;SDS011;9393;42.158;24.748;2022-12-20T04:36:03;28.67;;;10.20;;
18526;SDS011;9393;42.158;24.748;2022-12-20T04:39:08;19.70;;;10.20;;
18526;SDS011;9393;42.158;24.748;2022-12-20T04:42:23;23.30;;;10.53;;
18526;SDS011;9393;42.158;24.748;2022-12-20T04:45:29;111.17;;;35.10;;
18526;SDS011;9393;42.158;24.748;2022-12-20T04:48:33;68.77;;;22.70;;
18526;SDS011;9393;42.158;24.748;2022-12-20T04:52:00;31.13;;;14.63;;
18526;SDS011;9393;42.158;24.748;2022-12-20T04:55:20;25.13;;;12.20;;
18526;SDS011;9393;42.158;24.748;2022-12-20T04:58:24;47.13;;;16.93;;
18526;SDS011;9393;42.158;24.748;2022-12-20T05:01:28;31.93;;;14.43;;
18526;SDS011;9393;42.158;24.748;2022-12-20T05:04:32;20.93;;;10.60;;
18526;SDS011;9393;42.158;24.748;2022-12-20T05:07:40;24.73;;;11.07;;
18526;SDS011;9393;42.158;24.748;2022-12-20T05:10:44;31.60;;;13.83;;
18526;SDS011;9393;42.158;24.748;2022-12-20T05:13:50;33.00;;;14.60;;
18526;SDS011;9393;42.158;24.748;2022-12-20T05:16:55;40.37;;;15.40;;
18526;SDS011;9393;42.158;24.748;2022-12-20T05:20:00;40.37;;;15.87;;
18526;SDS011;9393;42.158;24.748;2022-12-20T05:23:07;32.73;;;14.07;;
18526;SDS011;9393;42.158;24.748;2022-12-20T05:26:45;31.17;;;12.57;;
18526;SDS011;9393;42.158;24.748;2022-12-20T05:29:52;29.57;;;13.20;;
18526;SDS011;9393;42.158;24.748;2022-12-20T05:32:55;32.17;;;15.10;;
18526;SDS011;9393;42.158;24.748;2022-12-20T05:36:00;24.87;;;12.50;;
18526;SDS011;9393;42.158;24.748;2022-12-20T05:39:05;42.17;;;18.40;;
18526;SDS011;9393;42.158;24.748;2022-12-20T05:42:13;54.73;;;23.73;;
18526;SDS011;9393;42.158;24.748;2022-12-20T05:45:17;30.00;;;13.57;;
18526;SDS011;9393;42.158;24.748;2022-12-20T05:48:27;46.17;;;18.73;;
18526;SDS011;9393;42.158;24.748;2022-12-20T05:51:31;29.97;;;13.03;;
18526;SDS011;9393;42.158;24.748;2022-12-20T05:55:03;30.97;;;14.57;;
18526;SDS011;9393;42.158;24.748;2022-12-20T05:58:09;33.23;;;15.03;;
18526;SDS011;9393;42.158;24.748;2022-12-20T06:01:24;35.50;;;15.03;;
18526;SDS011;9393;42.158;24.748;2022-12-20T06:04:32;28.53;;;14.07;;
18526;SDS011;9393;42.158;24.748;2022-12-20T06:07:43;31.27;;;15.43;;
18526;SDS011;9393;42.158;24.748;2022-12-20T06:10:50;34.20;;;17.17;;
18526;SDS011;9393;42.158;24.748;2022-12-20T06:13:56;42.23;;;19.37;;
18526;SDS011;9393;42.158;24.748;2022-12-20T06:17:01;38.87;;;18.80;;
18526;SDS011;9393;42.158;24.748;2022-12-20T06:20:06;47.37;;;18.90;;
18526;SDS011;9393;42.158;24.748;2022-12-20T06:23:11;44.30;;;20.30;;
18526;SDS011;9393;42.158;24.748;2022-12-20T06:26:24;40.37;;;18.93;;
18526;SDS011;9393;42.158;24.748;2022-12-20T06:29:28;40.60;;;18.90;;
18526;SDS011;9393;42.158;24.748;2022-12-20T06:32:38;39.87;;;20.77;;
18526;SDS011;9393;42.158;24.748;2022-12-20T06:35:43;49.63;;;23.47;;
18526;SDS011;9393;42.158;24.748;2022-12-20T06:38:47;50.97;;;25.27;;
18526;SDS011;9393;42.158;24.748;2022-12-20T06:41:53;49.90;;;24.10;;
18526;SDS011;9393;42.158;24.748;2022-12-20T06:44:58;55.97;;;25.77;;
18526;SDS011;9393;42.158;24.748;2022-12-20T06:48:03;42.83;;;22.07;;
18526;SDS011;9393;42.158;24.748;2022-12-20T06:51:09;41.60;;;22.17;;
18526;SDS011;9393;42.158;24.748;2022-12-20T06:54:13;43.93;;;20.40;;
18526;SDS011;9393;42.158;24.748;2022-12-20T06:57:18;33.60;;;16.70;;
18526;SDS011;9393;42.158;24.748;2022-12-20T07:00:23;27.90;;;13.97;;
18526;SDS011;9393;42.158;24.748;2022-12-20T07:03:28;29.93;;;15.23;;
18526;SDS011;9393;42.158;24.748;2022-12-20T07:06:32;32.23;;;16.03;;
18526;SDS011;9393;42.158;24.748;2022-12-20T07:09:36;36.10;;;16.67;;
18526;SDS011;9393;42.158;24.748;2022-12-20T07:12:43;38.47;;;16.27;;
18526;SDS011;9393;42.158;24.748;2022-12-20T07:15:55;32.27;;;16.10;;
18526;SDS011;9393;42.158;24.748;2022-12-20T07:19:00;29.20;;;15.10;;
18526;SDS011;9393;42.158;24.748;2022-12-20T07:22:04;34.30;;;16.90;;
18526;SDS011;9393;42.158;24.748;2022-12-20T07:25:08;32.10;;;15.83;;
18526;SDS011;9393;42.158;24.748;2022-12-20T07:28:14;27.23;;;14.50;;
18526;SDS011;9393;42.158;24.748;2022-12-20T07:31:18;31.83;;;14.37;;
18526;SDS011;9393;42.158;24.748;2022-12-20T07:34:22;34.40;;;16.47;;
18526;SDS011;9393;42.158;24.748;2022-12-20T07:37:27;42.40;;;17.27;;
18526;SDS011;9393;42.158;24.748;2022-12-20T07:40:31;33.03;;;16.00;;
18526;SDS011;9393;42.158;24.748;2022-12-20T07:43:36;26.80;;;14.80;;
18526;SDS011;9393;42.158;24.748;2022-12-20T07:46:40;28.20;;;14.07;;
18526;SDS011;9393;42.158;24.748;2022-12-20T07:49:44;30.87;;;15.17;;
18526;SDS011;9393;42.158;24.748;2022-12-20T07:52:50;29.17;;;13.87;;
18526;SDS011;9393;42.158;24.748;2022-12-20T07:55:54;26.13;;;14.07;;
18526;SDS011;9393;42.158;24.748;2022-12-20T07:59:01;28.60;;;13.00;;
18526;SDS011;9393;42.158;24.748;2022-12-20T08:02:06;22.63;;;13.00;;
18526;SDS011;9393;42.158;24.748;2022-12-20T08:05:14;22.03;;;12.57;;
18526;SDS011;9393;42.158;24.748;2022-12-20T08:08:19;21.10;;;12.10;;
18526;SDS011;9393;42.158;24.748;2022-12-20T08:11:24;20.87;;;12.20;;
18526;SDS011;9393;42.158;24.748;2022-12-20T08:14:31;27.83;;;13.47;;
18526;SDS011;9393;42.158;24.748;2022-12-20T08:17:35;26.97;;;13.70;;
18526;SDS011;9393;42.158;24.748;2022-12-20T08:20:42;24.90;;;14.50;;
18526;SDS011;9393;42.158;24.748;2022-12-20T08:23:46;34.37;;;14.23;;
18526;SDS011;9393;42.158;24.748;2022-12-20T08:26:50;30.90;;;15.97;;
18526;SDS011;9393;42.158;24.748;2022-12-20T08:29:55;31.93;;;16.67;;
18526;SDS011;9393;42.158;24.748;2022-12-20T08:32:59;31.67;;;16.80;;
18526;SDS011;9393;42.158;24.748;2022-12-20T08:36:04;34.17;;;16.87;;
18526;SDS011;9393;42.158;24.748;2022-12-20T08:39:11;32.30;;;16.40;;
18526;SDS011;9393;42.158;24.748;2022-12-20T08:42:15;26.00;;;15.60;;
18526;SDS011;9393;42.158;24.748;2022-12-20T08:45:20;29.60;;;14.83;;
18526;SDS011;9393;42.158;24.748;2022-12-20T08:48:24;30.30;;;15.73;;
18526;SDS011;9393;42.158;24.748;2022-12-20T08:51:28;25.03;;;15.23;;
18526;SDS011;9393;42.158;24.748;2022-12-20T08:54:32;30.43;;;17.40;;
18526;SDS011;9393;42.158;24.748;2022-12-20T08:57:36;30.83;;;15.80;;
18526;SDS011;9393;42.158;24.748;2022-12-20T09:00:41;27.47;;;15.43;;
18526;SDS011;9393;42.158;24.748;2022-12-20T09:03:45;26.73;;;14.30;;
18526;SDS011;9393;42.158;24.748;2022-12-20T09:06:50;23.80;;;12.97;;
18526;SDS011;9393;42.158;24.748;2022-12-20T09:09:53;23.17;;;12.53;;
18526;SDS011;9393;42.158;24.748;2022-12-20T09:12:57;23.20;;;13.63;;
18526;SDS011;9393;42.158;24.748;2022-12-20T09:16:03;20.83;;;11.50;;
18526;SDS011;9393;42.158;24.748;2022-12-20T09:19:12;23.27;;;12.53;;
18526;SDS011;9393;42.158;24.748;2022-12-20T09:22:19;27.77;;;14.77;;
18526;SDS011;9393;42.158;24.748;2022-12-20T09:25:23;24.93;;;14.37;;
18526;SDS011;9393;42.158;24.748;2022-12-20T09:28:27;23.17;;;12.20;;
18526;SDS011;9393;42.158;24.748;2022-12-20T09:31:32;25.47;;;13.57;;
18526;SDS011;9393;42.158;24.748;2022-12-20T09:34:37;22.27;;;11.93;;
18526;SDS011;9393;42.158;24.748;2022-12-20T09:37:41;20.63;;;12.53;;
18526;SDS011;9393;42.158;24.748;2022-12-20T09:40:46;28.60;;;13.33;;
18526;SDS011;9393;42.158;24.748;2022-12-20T09:43:52;24.00;;;13.47;;
18526;SDS011;9393;42.158;24.748;2022-12-20T09:46:58;21.90;;;12.90;;
18526;SDS011;9393;42.158;24.748;2022-12-20T09:50:13;22.57;;;12.80;;
18526;SDS011;9393;42.158;24.748;2022-12-20T09:53:21;21.97;;;13.07;;
18526;SDS011;9393;42.158;24.748;2022-12-20T09:56:31;21.13;;;12.53;;
18526;SDS011;9393;42.158;24.748;2022-12-20T09:59:42;22.93;;;12.83;;
18526;SDS011;9393;42.158;24.748;2022-12-20T10:02:52;20.13;;;11.73;;
18526;SDS011;9393;42.158;24.748;2022-12-20T10:06:12;18.93;;;10.87;;
18526;SDS011;9393;42.158;24.748;2022-12-20T10:09:38;17.07;;;10.43;;
18526;SDS011;9393;42.158;24.748;2022-12-20T10:12:51;20.30;;;11.23;;
18526;SDS011;9393;42.158;24.748;2022-12-20T10:16:05;16.43;;;9.33;;
18526;SDS011;9393;42.158;24.748;2022-12-20T10:19:27;17.97;;;10.17;;
18526;SDS011;9393;42.158;24.748;2022-12-20T10:22:47;15.30;;;7.80;;
18526;SDS011;9393;42.158;24.748;2022-12-20T10:25:55;16.93;;;9.50;;
18526;SDS011;9393;42.158;24.748;2022-12-20T10:29:00;14.60;;;9.03;;
18526;SDS011;9393;42.158;24.748;2022-12-20T10:32:07;17.80;;;9.80;;
18526;SDS011;9393;42.158;24.748;2022-12-20T10:35:22;17.40;;;10.87;;
18526;SDS011;9393;42.158;24.748;2022-12-20T10:38:28;18.10;;;10.50;;
18526;SDS011;9393;42.158;24.748;2022-12-20T10:41:47;21.23;;;11.43;;
18526;SDS011;9393;42.158;24.748;2022-12-20T10:44:52;15.67;;;9.73;;
18526;SDS011;9393;42.158;24.748;2022-12-20T10:47:58;16.93;;;9.60;;
18526;SDS011;9393;42.158;24.748;2022-12-20T10:51:13;17.07;;;9.80;;
18526;SDS011;9393;42.158;24.748;2022-12-20T10:54:21;18.63;;;10.37;;
18526;SDS011;9393;42.158;24.748;2022-12-20T10:57:27;18.70;;;10.90;;
18526;SDS011;9393;42.158;24.748;2022-12-20T11:00:34;17.30;;;10.57;;
18526;SDS011;9393;42.158;24.748;2022-12-20T11:03:48;15.93;;;9.90;;
18526;SDS011;9393;42.158;24.748;2022-12-20T11:06:55;18.10;;;11.23;;
18526;SDS011;9393;42.158;24.748;2022-12-20T11:10:01;18.07;;;10.00;;
18526;SDS011;9393;42.158;24.748;2022-12-20T11:13:20;17.97;;;10.20;;
18526;SDS011;9393;42.158;24.748;2022-12-20T11:16:33;17.67;;;11.27;;
18526;SDS011;9393;42.158;24.748;2022-12-20T11:19:49;17.83;;;11.57;;
18526;SDS011;9393;42.158;24.748;2022-12-20T11:23:19;21.07;;;11.17;;
18526;SDS011;9393;42.158;24.748;2022-12-20T11:26:34;20.23;;;11.57;;
18526;SDS011;9393;42.158;24.748;2022-12-20T11:29:57;16.73;;;10.33;;
18526;SDS011;9393;42.158;24.748;2022-12-20T11:33:19;24.10;;;11.87;;
18526;SDS011;9393;42.158;24.748;2022-12-20T11:36:51;17.73;;;10.47;;
18526;SDS011;9393;42.158;24.748;2022-12-20T11:40:15;17.07;;;10.57;;
18526;SDS011;9393;42.158;24.748;2022-12-20T11:43:32;18.67;;;10.57;;
18526;SDS011;9393;42.158;24.748;2022-12-20T11:47:20;17.83;;;10.40;;
18526;SDS011;9393;42.158;24.748;2022-12-20T11:50:37;17.10;;;10.33;;
18526;SDS011;9393;42.158;24.748;2022-12-20T11:53:52;18.13;;;10.53;;
18526;SDS011;9393;42.158;24.748;2022-12-20T11:57:05;15.90;;;10.00;;
18526;SDS011;9393;42.158;24.748;2022-12-20T12:00:14;17.97;;;9.80;;
18526;SDS011;9393;42.158;24.748;2022-12-20T12:03:20;18.13;;;11.47;;
18526;SDS011;9393;42.158;24.748;2022-12-20T12:06:31;19.20;;;10.67;;
18526;SDS011;9393;42.158;24.748;2022-12-20T12:09:39;19.90;;;9.73;;
18526;SDS011;9393;42.158;24.748;2022-12-20T12:12:51;19.27;;;10.40;;
18526;SDS011;9393;42.158;24.748;2022-12-20T12:16:00;19.97;;;9.03;;
18526;SDS011;9393;42.158;24.748;2022-12-20T12:19:12;18.30;;;9.23;;
18526;SDS011;9393;42.158;24.748;2022-12-20T12:22:19;15.73;;;9.40;;
18526;SDS011;9393;42.158;24.748;2022-12-20T12:25:27;17.37;;;9.70;;
18526;SDS011;9393;42.158;24.748;2022-12-20T12:28:33;19.93;;;9.70;;
18526;SDS011;9393;42.158;24.748;2022-12-20T12:31:37;19.00;;;9.63;;
18526;SDS011;9393;42.158;24.748;2022-12-20T12:34:50;18.53;;;10.37;;
18526;SDS011;9393;42.158;24.748;2022-12-20T12:38:22;19.20;;;10.80;;
18526;SDS011;9393;42.158;24.748;2022-12-20T12:41:49;23.17;;;10.93;;
18526;SDS011;9393;42.158;24.748;2022-12-20T12:45:24;19.03;;;10.63;;
18526;SDS011;9393;42.158;24.748;2022-12-20T12:48:32;19.73;;;10.60;;
18526;SDS011;9393;42.158;24.748;2022-12-20T12:51:40;23.53;;;10.97;;
18526;SDS011;9393;42.158;24.748;2022-12-20T12:54:51;17.90;;;10.53;;
18526;SDS011;9393;42.158;24.748;2022-12-20T12:57:57;18.30;;;10.63;;
18526;SDS011;9393;42.158;24.748;2022-12-20T13:01:03;18.57;;;10.03;;
18526;SDS011;9393;42.158;24.748;2022-12-20T13:04:21;18.43;;;10.90;;
18526;SDS011;9393;42.158;24.748;2022-12-20T13:07:29;21.60;;;11.83;;
18526;SDS011;9393;42.158;24.748;2022-12-20T13:10:59;18.40;;;11.37;;
18526;SDS011;9393;42.158;24.748;2022-12-20T13:14:11;22.10;;;11.40;;
18526;SDS011;9393;42.158;24.748;2022-12-20T13:17:48;25.13;;;12.40;;
18526;SDS011;9393;42.158;24.748;2022-12-20T13:24:51;21.33;;;11.27;;
18526;SDS011;9393;42.158;24.748;2022-12-20T13:31:34;22.07;;;12.43;;
18526;SDS011;9393;42.158;24.748;2022-12-20T13:34:54;23.20;;;12.40;;
18526;SDS011;9393;42.158;24.748;2022-12-20T13:38:03;23.00;;;12.40;;
18526;SDS011;9393;42.158;24.748;2022-12-20T13:41:10;29.10;;;13.23;;
18526;SDS011;9393;42.158;24.748;2022-12-20T13:44:35;25.57;;;12.50;;
18526;SDS011;9393;42.158;24.748;2022-12-20T13:47:44;29.40;;;14.77;;
18526;SDS011;9393;42.158;24.748;2022-12-20T13:50:53;22.70;;;12.97;;
18526;SDS011;9393;42.158;24.748;2022-12-20T13:53:59;21.97;;;12.37;;
18526;SDS011;9393;42.158;24.748;2022-12-20T13:57:05;26.00;;;13.10;;
18526;SDS011;9393;42.158;24.748;2022-12-20T14:00:14;22.47;;;12.87;;
18526;SDS011;9393;42.158;24.748;2022-12-20T14:03:21;26.23;;;12.77;;
18526;SDS011;9393;42.158;24.748;2022-12-20T14:06:28;24.03;;;13.33;;
18526;SDS011;9393;42.158;24.748;2022-12-20T14:09:33;24.07;;;12.87;;
18526;SDS011;9393;42.158;24.748;2022-12-20T14:12:40;27.00;;;12.33;;
18526;SDS011;9393;42.158;24.748;2022-12-20T14:15:47;68.67;;;31.33;;
18526;SDS011;9393;42.158;24.748;2022-12-20T14:18:59;33.53;;;15.57;;
18526;SDS011;9393;42.158;24.748;2022-12-20T14:22:06;49.40;;;24.10;;
18526;SDS011;9393;42.158;24.748;2022-12-20T14:25:13;31.40;;;13.93;;
18526;SDS011;9393;42.158;24.748;2022-12-20T14:28:24;27.70;;;13.67;;
18526;SDS011;9393;42.158;24.748;2022-12-20T14:31:34;28.67;;;13.40;;
18526;SDS011;9393;42.158;24.748;2022-12-20T14:34:42;25.27;;;12.50;;
18526;SDS011;9393;42.158;24.748;2022-12-20T14:37:52;23.10;;;11.67;;
18526;SDS011;9393;42.158;24.748;2022-12-20T14:40:58;24.80;;;11.27;;
18526;SDS011;9393;42.158;24.748;2022-12-20T14:44:10;20.77;;;11.57;;
18526;SDS011;9393;42.158;24.748;2022-12-20T14:47:19;23.47;;;12.57;;
18526;SDS011;9393;42.158;24.748;2022-12-20T14:50:28;27.87;;;14.80;;
18526;SDS011;9393;42.158;24.748;2022-12-20T14:53:35;25.17;;;12.57;;
18526;SDS011;9393;42.158;24.748;2022-12-20T14:56:43;31.43;;;14.53;;
18526;SDS011;9393;42.158;24.748;2022-12-20T14:59:56;32.27;;;16.00;;
18526;SDS011;9393;42.158;24.748;2022-12-20T15:03:09;33.60;;;17.97;;
18526;SDS011;9393;42.158;24.748;2022-12-20T15:09:44;40.63;;;19.77;;
18526;SDS011;9393;42.158;24.748;2022-12-20T15:12:48;38.87;;;18.83;;
18526;SDS011;9393;42.158;24.748;2022-12-20T15:15:52;36.77;;;18.53;;
18526;SDS011;9393;42.158;24.748;2022-12-20T15:18:57;34.10;;;17.57;;
18526;SDS011;9393;42.158;24.748;2022-12-20T15:22:02;37.00;;;19.23;;
18526;SDS011;9393;42.158;24.748;2022-12-20T15:25:09;47.03;;;23.67;;
18526;SDS011;9393;42.158;24.748;2022-12-20T15:28:19;36.77;;;19.93;;
18526;SDS011;9393;42.158;24.748;2022-12-20T15:31:24;39.90;;;20.37;;
18526;SDS011;9393;42.158;24.748;2022-12-20T15:34:34;46.03;;;21.73;;
18526;SDS011;9393;42.158;24.748;2022-12-20T15:37:40;43.87;;;22.73;;
18526;SDS011;9393;42.158;24.748;2022-12-20T15:40:46;50.73;;;23.07;;
18526;SDS011;9393;42.158;24.748;2022-12-20T15:43:53;56.10;;;25.00;;
18526;SDS011;9393;42.158;24.748;2022-12-20T15:46:58;81.30;;;29.97;;
18526;SDS011;9393;42.158;24.748;2022-12-20T15:50:02;88.17;;;36.93;;
18526;SDS011;9393;42.158;24.748;2022-12-20T15:53:08;76.57;;;37.23;;
18526;SDS011;9393;42.158;24.748;2022-12-20T15:56:18;81.33;;;39.33;;
18526;SDS011;9393;42.158;24.748;2022-12-20T15:59:22;79.43;;;37.00;;
18526;SDS011;9393;42.158;24.748;2022-12-20T16:02:46;58.53;;;29.30;;
18526;SDS011;9393;42.158;24.748;2022-12-20T16:05:52;63.40;;;30.70;;
18526;SDS011;9393;42.158;24.748;2022-12-20T16:08:57;73.03;;;35.40;;
18526;SDS011;9393;42.158;24.748;2022-12-20T16:12:07;69.27;;;36.33;;
18526;SDS011;9393;42.158;24.748;2022-12-20T16:15:18;64.97;;;35.07;;
18526;SDS011;9393;42.158;24.748;2022-12-20T16:18:23;71.63;;;38.40;;
18526;SDS011;9393;42.158;24.748;2022-12-20T16:21:36;82.80;;;37.77;;
18526;SDS011;9393;42.158;24.748;2022-12-20T16:24:46;44.07;;;20.73;;
18526;SDS011;9393;42.158;24.748;2022-12-20T16:27:51;51.33;;;21.97;;
18526;SDS011;9393;42.158;24.748;2022-12-20T16:30:56;42.47;;;19.17;;
18526;SDS011;9393;42.158;24.748;2022-12-20T16:34:00;43.70;;;19.10;;
18526;SDS011;9393;42.158;24.748;2022-12-20T16:37:05;40.23;;;19.13;;
18526;SDS011;9393;42.158;24.748;2022-12-20T16:40:10;55.63;;;26.73;;
18526;SDS011;9393;42.158;24.748;2022-12-20T16:43:17;65.13;;;31.60;;
18526;SDS011;9393;42.158;24.748;2022-12-20T16:46:22;68.73;;;32.97;;
18526;SDS011;9393;42.158;24.748;2022-12-20T16:49:28;70.50;;;30.93;;
18526;SDS011;9393;42.158;24.748;2022-12-20T16:52:32;62.80;;;29.60;;
18526;SDS011;9393;42.158;24.748;2022-12-20T16:55:38;63.67;;;30.40;;
18526;SDS011;9393;42.158;24.748;2022-12-20T16:58:44;52.77;;;29.10;;
18526;SDS011;9393;42.158;24.748;2022-12-20T17:02:11;51.07;;;25.53;;
18526;SDS011;9393;42.158;24.748;2022-12-20T17:05:26;50.00;;;26.17;;
18526;SDS011;9393;42.158;24.748;2022-12-20T17:08:31;50.73;;;26.10;;
18526;SDS011;9393;42.158;24.748;2022-12-20T17:11:52;51.30;;;25.07;;
18526;SDS011;9393;42.158;24.748;2022-12-20T17:14:58;47.53;;;23.83;;
18526;SDS011;9393;42.158;24.748;2022-12-20T17:18:02;48.50;;;24.60;;
18526;SDS011;9393;42.158;24.748;2022-12-20T17:21:12;52.47;;;26.20;;
18526;SDS011;9393;42.158;24.748;2022-12-20T17:24:23;46.83;;;24.70;;
18526;SDS011;9393;42.158;24.748;2022-12-20T17:27:27;47.57;;;24.50;;
18526;SDS011;9393;42.158;24.748;2022-12-20T17:30:33;51.27;;;24.33;;
18526;SDS011;9393;42.158;24.748;2022-12-20T17:33:36;48.17;;;25.47;;
18526;SDS011;9393;42.158;24.748;2022-12-20T17:36:40;45.80;;;25.97;;
18526;SDS011;9393;42.158;24.748;2022-12-20T17:39:44;59.43;;;28.73;;
18526;SDS011;9393;42.158;24.748;2022-12-20T17:42:48;52.73;;;27.40;;
18526;SDS011;9393;42.158;24.748;2022-12-20T17:45:53;53.13;;;26.07;;
18526;SDS011;9393;42.158;24.748;2022-12-20T17:48:57;55.10;;;28.00;;
18526;SDS011;9393;42.158;24.748;2022-12-20T17:52:01;50.53;;;28.50;;
18526;SDS011;9393;42.158;24.748;2022-12-20T17:55:06;60.43;;;31.20;;
18526;SDS011;9393;42.158;24.748;2022-12-20T17:58:17;49.80;;;27.27;;
18526;SDS011;9393;42.158;24.748;2022-12-20T18:01:23;48.47;;;27.10;;
18526;SDS011;9393;42.158;24.748;2022-12-20T18:04:28;54.23;;;25.43;;
18526;SDS011;9393;42.158;24.748;2022-12-20T18:07:32;48.47;;;25.43;;
18526;SDS011;9393;42.158;24.748;2022-12-20T18:10:36;45.70;;;26.00;;
18526;SDS011;9393;42.158;24.748;2022-12-20T18:13:40;48.30;;;25.97;;
18526;SDS011;9393;42.158;24.748;2022-12-20T18:16:47;53.80;;;27.97;;
18526;SDS011;9393;42.158;24.748;2022-12-20T18:19:51;54.63;;;26.83;;
18526;SDS011;9393;42.158;24.748;2022-12-20T18:22:56;58.80;;;27.23;;
18526;SDS011;9393;42.158;24.748;2022-12-20T18:26:04;49.30;;;25.30;;
18526;SDS011;9393;42.158;24.748;2022-12-20T18:29:09;48.17;;;24.87;;
18526;SDS011;9393;42.158;24.748;2022-12-20T18:32:15;52.43;;;24.77;;
18526;SDS011;9393;42.158;24.748;2022-12-20T18:35:19;47.33;;;24.50;;